Time;durP1;ratioP1;P1;durP2;ratioP2;P2;SDS_P1;SDS_P2;PMS_P1;PMS_P2;Temp;Humidity;BMP_temperature;BMP_pressure;BME280_temperature;BME280_humidity;BME280_pressure;Samples;Min_cycle;Max_cycle;Signal;HPM_P1;HPM_P2
2022/02/25 00:01:23;;;;;;;4.00;1.10;;;4.80;99.90;;;;;;5010659;28;20450;-74
2022/02/25 00:03:50;;;;;;;2.67;1.13;;;4.80;99.90;;;;;;5010626;28;20446;-74
2022/02/25 00:06:19;;;;;;;2.37;1.30;;;4.80;99.90;;;;;;5010053;28;20480;-75
2022/02/25 00:08:46;;;;;;;2.60;1.60;;;4.70;99.90;;;;;;5010457;28;20458;-74
2022/02/25 00:11:13;;;;;;;2.07;1.00;;;4.70;99.90;;;;;;5010456;28;20537;-74
2022/02/25 00:13:40;;;;;;;2.37;1.23;;;4.70;99.90;;;;;;5009457;28;20816;-74
2022/02/25 00:16:17;;;;;;;2.40;1.47;;;4.70;99.90;;;;;;5009913;28;20556;-74
2022/02/25 00:22:06;;;;;;;5.27;1.50;;;4.60;99.90;;;;;;5010359;28;20469;-74
2022/02/25 00:24:32;;;;;;;5.50;1.40;;;4.50;99.90;;;;;;5010099;28;20843;-74
2022/02/25 00:26:59;;;;;;;2.90;1.50;;;4.50;99.90;;;;;;5010102;28;20484;-74
2022/02/25 00:29:26;;;;;;;3.60;1.50;;;4.40;99.90;;;;;;5009896;28;20912;-74
2022/02/25 00:31:54;;;;;;;3.40;1.30;;;4.40;99.90;;;;;;5010129;28;20541;-74
2022/02/25 00:34:21;;;;;;;3.10;1.50;;;4.50;99.90;;;;;;5010111;28;20536;-75
2022/02/25 00:36:48;;;;;;;2.90;1.23;;;4.50;99.90;;;;;;5010277;28;20477;-74
2022/02/25 00:39:15;;;;;;;3.73;1.63;;;4.40;99.90;;;;;;5010046;28;20446;-73
2022/02/25 00:41:41;;;;;;;2.73;1.30;;;4.40;99.90;;;;;;5009886;28;20450;-73
2022/02/25 00:44:08;;;;;;;3.57;1.50;;;4.40;99.90;;;;;;5010164;28;21181;-74
2022/02/25 00:46:35;;;;;;;2.37;1.40;;;4.30;99.90;;;;;;5010000;28;20561;-73
2022/02/25 00:49:03;;;;;;;4.93;1.90;;;4.30;99.90;;;;;;5010146;28;20450;-73
2022/02/25 00:51:30;;;;;;;3.70;2.03;;;4.40;99.90;;;;;;5009967;28;20453;-73
2022/02/25 00:53:57;;;;;;;5.47;2.07;;;4.30;99.90;;;;;;5009790;28;20840;-74
2022/02/25 00:56:24;;;;;;;5.40;1.60;;;4.30;99.90;;;;;;5009600;28;20556;-74
2022/02/25 00:58:53;;;;;;;4.20;2.10;;;4.30;99.90;;;;;;5009943;28;20469;-73
2022/02/25 01:01:20;;;;;;;2.40;1.43;;;4.20;99.90;;;;;;5009955;28;20542;-75
2022/02/25 01:03:47;;;;;;;3.20;1.63;;;4.20;99.90;;;;;;5009989;28;20859;-75
2022/02/25 01:06:15;;;;;;;3.50;1.70;;;4.20;99.90;;;;;;5009354;28;20515;-76
2022/02/25 01:08:42;;;;;;;3.63;1.77;;;4.20;99.90;;;;;;5009814;28;20581;-75
2022/02/25 01:11:09;;;;;;;3.63;1.93;;;4.20;99.90;;;;;;5009805;28;20532;-75
2022/02/25 01:13:36;;;;;;;4.80;1.80;;;4.20;99.90;;;;;;5009800;28;20453;-74
2022/02/25 01:16:02;;;;;;;3.90;1.90;;;4.20;99.90;;;;;;5009455;28;20476;-76
2022/02/25 01:18:29;;;;;;;4.07;1.80;;;4.10;99.90;;;;;;5009946;28;20457;-75
2022/02/25 01:20:56;;;;;;;5.87;1.97;;;4.20;99.90;;;;;;5009675;28;21061;-75
2022/02/25 01:23:24;;;;;;;4.20;2.70;;;4.20;99.90;;;;;;5009643;28;20493;-75
2022/02/25 01:25:51;;;;;;;4.03;2.00;;;4.10;99.90;;;;;;5011665;28;20465;-75
2022/02/25 01:28:18;;;;;;;4.17;1.90;;;4.10;99.90;;;;;;5013468;28;20449;-75
2022/02/25 01:30:45;;;;;;;6.47;2.10;;;4.00;99.90;;;;;;5013454;28;20454;-75
2022/02/25 01:33:12;;;;;;;3.10;1.60;;;4.10;99.90;;;;;;5013300;28;20453;-75
2022/02/25 01:35:39;;;;;;;3.50;1.87;;;4.00;99.90;;;;;;5012946;28;20480;-76
2022/02/25 01:38:05;;;;;;;2.93;1.70;;;4.00;99.90;;;;;;5013065;28;20449;-75
2022/02/25 01:40:33;;;;;;;2.70;1.60;;;4.00;99.90;;;;;;5013441;28;20854;-75
2022/02/25 01:43:00;;;;;;;3.00;1.80;;;4.00;99.90;;;;;;5013354;28;20933;-75
2022/02/25 01:45:29;;;;;;;3.93;2.03;;;3.90;99.90;;;;;;5012896;28;20469;-75
2022/02/25 01:47:55;;;;;;;4.23;2.30;;;3.90;99.90;;;;;;5013099;28;20453;-75
2022/02/25 01:50:22;;;;;;;3.10;1.60;;;3.90;99.90;;;;;;5013001;28;20935;-75
2022/02/25 01:52:59;;;;;;;3.00;1.60;;;3.90;99.90;;;;;;5012711;28;20446;-76
2022/02/25 01:55:26;;;;;;;3.97;1.40;;;3.90;99.90;;;;;;5012750;28;20465;-79
2022/02/25 01:57:54;;;;;;;7.30;1.73;;;3.90;99.90;;;;;;5012840;28;20445;-74
2022/02/25 02:00:21;;;;;;;2.80;1.60;;;3.90;99.90;;;;;;5012860;28;20536;-75
2022/02/25 02:02:48;;;;;;;3.40;1.33;;;3.90;99.90;;;;;;5012511;28;20474;-75
2022/02/25 02:05:15;;;;;;;5.57;1.27;;;3.80;99.90;;;;;;5012178;28;21038;-75
2022/02/25 02:07:42;;;;;;;3.43;1.40;;;3.90;99.90;;;;;;5012828;28;20838;-76
2022/02/25 02:10:10;;;;;;;9.70;1.80;;;3.80;99.90;;;;;;5011558;28;20911;-74
2022/02/25 02:12:37;;;;;;;6.03;1.33;;;3.90;99.90;;;;;;5012556;28;20437;-75
2022/02/25 02:15:06;;;;;;;4.93;1.27;;;3.80;99.90;;;;;;5012108;28;20468;-74
2022/02/25 02:17:34;;;;;;;5.83;2.03;;;3.80;99.90;;;;;;5012214;28;20472;-75
2022/02/25 02:20:01;;;;;;;2.57;1.10;;;3.80;99.90;;;;;;5012514;28;20452;-74
2022/02/25 02:22:30;;;;;;;3.20;1.53;;;3.80;99.90;;;;;;5012472;28;20481;-75
2022/02/25 02:24:58;;;;;;;6.90;1.60;;;3.80;99.90;;;;;;5011818;28;20445;-75
2022/02/25 02:28:17;;;;;;;4.60;1.40;;;3.80;99.90;;;;;;5012356;28;20453;-74
2022/02/25 02:30:14;;;;;;;3.70;1.40;;;3.80;99.90;;;;;;5011977;28;20496;-75
2022/02/25 02:32:41;;;;;;;8.13;1.30;;;3.70;99.90;;;;;;5012279;28;20832;-75
2022/02/25 02:35:09;;;;;;;5.60;1.70;;;3.70;99.90;;;;;;5011581;28;20552;-75
2022/02/25 02:37:37;;;;;;;3.70;1.40;;;3.70;99.90;;;;;;5011335;28;20464;-74
2022/02/25 02:40:06;;;;;;;4.50;1.20;;;3.70;99.90;;;;;;5012073;28;20457;-75
2022/02/25 02:42:33;;;;;;;3.00;1.20;;;3.70;99.90;;;;;;5011896;28;20478;-74
2022/02/25 02:45:00;;;;;;;3.47;1.40;;;3.70;99.90;;;;;;5011529;28;20450;-74
2022/02/25 02:47:27;;;;;;;7.33;1.47;;;3.70;99.90;;;;;;5011988;28;20969;-75
2022/02/25 02:49:54;;;;;;;3.67;1.23;;;3.70;99.90;;;;;;5011817;28;20531;-74
2022/02/25 02:52:20;;;;;;;6.93;1.90;;;3.70;99.90;;;;;;5011846;28;20829;-74
2022/02/25 02:54:49;;;;;;;2.77;1.40;;;3.70;99.90;;;;;;5011132;28;20553;-75
2022/02/25 02:57:16;;;;;;;3.93;1.87;;;3.70;99.90;;;;;;5011539;28;20456;-75
2022/02/25 02:59:43;;;;;;;2.30;1.10;;;3.70;99.90;;;;;;5011531;28;20450;-75
2022/02/25 03:02:11;;;;;;;4.57;1.20;;;3.70;99.90;;;;;;5011509;28;20485;-75
2022/02/25 03:04:38;;;;;;;4.43;1.30;;;3.60;99.90;;;;;;5011366;28;20438;-75
2022/02/25 03:07:06;;;;;;;2.90;1.40;;;3.70;99.90;;;;;;5011439;28;20911;-75
2022/02/25 03:09:32;;;;;;;5.10;1.40;;;3.70;99.90;;;;;;5011387;28;20461;-75
2022/02/25 03:12:02;;;;;;;3.63;1.43;;;3.70;99.90;;;;;;5011549;28;20462;-75
2022/02/25 03:14:29;;;;;;;3.43;1.20;;;3.70;99.90;;;;;;5010969;28;20454;-74
2022/02/25 03:16:56;;;;;;;3.90;1.50;;;3.70;99.90;;;;;;5011185;28;20990;-75
2022/02/25 03:19:22;;;;;;;3.67;1.73;;;3.70;99.90;;;;;;5011199;28;20834;-75
2022/02/25 03:21:49;;;;;;;3.13;1.70;;;3.70;99.90;;;;;;5011001;28;20548;-76
2022/02/25 03:24:16;;;;;;;3.03;1.20;;;3.70;99.90;;;;;;5010701;28;20600;-76
2022/02/25 03:26:43;;;;;;;6.30;1.60;;;3.70;99.90;;;;;;5011209;28;20470;-75
2022/02/25 03:29:11;;;;;;;4.60;1.40;;;3.70;99.90;;;;;;5011254;28;20907;-76
2022/02/25 03:31:38;;;;;;;6.63;1.37;;;3.70;99.90;;;;;;5011047;28;20446;-75
2022/02/25 03:34:05;;;;;;;2.87;1.23;;;3.70;99.90;;;;;;5011003;28;20445;-75
2022/02/25 03:36:32;;;;;;;9.23;1.40;;;3.70;99.90;;;;;;5011265;28;20465;-74
2022/02/25 03:38:59;;;;;;;4.87;1.67;;;3.70;99.90;;;;;;5010964;28;20461;-75
2022/02/25 03:41:26;;;;;;;3.77;1.37;;;3.60;99.90;;;;;;5011174;28;20532;-75
2022/02/25 03:43:53;;;;;;;5.33;2.17;;;3.60;99.90;;;;;;5010676;28;20486;-76
2022/02/25 03:46:21;;;;;;;3.80;1.80;;;3.50;99.90;;;;;;5010534;28;20461;-75
2022/02/25 03:48:50;;;;;;;4.53;1.30;;;3.50;99.90;;;;;;5010534;28;20465;-76
2022/02/25 03:51:17;;;;;;;5.67;1.83;;;3.50;99.90;;;;;;5010573;28;20971;-75
2022/02/25 03:53:44;;;;;;;4.33;1.27;;;3.40;99.90;;;;;;5010513;28;20449;-74
2022/02/25 03:56:11;;;;;;;6.53;1.40;;;3.50;99.90;;;;;;5010075;28;20473;-75
2022/02/25 03:58:37;;;;;;;5.77;1.60;;;3.50;99.90;;;;;;5010481;28;20452;-75
2022/02/25 04:01:04;;;;;;;3.80;1.33;;;3.50;99.90;;;;;;5010423;28;20453;-75
2022/02/25 04:03:32;;;;;;;6.67;1.40;;;3.50;99.90;;;;;;5010262;28;20490;-75
2022/02/25 04:05:59;;;;;;;5.47;1.77;;;3.40;99.90;;;;;;5010086;28;20492;-75
2022/02/25 04:08:26;;;;;;;7.87;1.90;;;3.50;99.90;;;;;;5011373;28;20441;-74
2022/02/25 04:10:53;;;;;;;2.80;1.60;;;3.50;99.90;;;;;;5010242;28;20548;-75
2022/02/25 04:13:20;;;;;;;4.60;1.90;;;3.50;99.90;;;;;;5010388;28;20536;-75
2022/02/25 04:15:47;;;;;;;6.07;1.60;;;3.40;99.90;;;;;;5009798;28;20465;-74
2022/02/25 04:18:14;;;;;;;4.63;1.67;;;3.50;99.90;;;;;;5010252;28;20449;-75
2022/02/25 04:20:42;;;;;;;5.00;1.70;;;3.60;99.90;;;;;;5010271;28;20886;-75
2022/02/25 04:23:09;;;;;;;3.80;1.50;;;3.60;99.90;;;;;;5010150;28;21107;-75
2022/02/25 04:25:36;;;;;;;2.90;1.23;;;3.50;99.90;;;;;;5009599;28;20553;-75
2022/02/25 04:28:03;;;;;;;9.10;1.90;;;3.60;99.90;;;;;;5010108;28;20453;-75
2022/02/25 04:30:29;;;;;;;5.60;1.60;;;3.60;99.90;;;;;;5009896;28;20453;-75
2022/02/25 04:32:56;;;;;;;7.20;1.70;;;3.60;99.90;;;;;;5009923;28;20540;-75
2022/02/25 04:35:23;;;;;;;6.13;1.10;;;3.70;99.90;;;;;;5009774;28;20469;-75
2022/02/25 04:37:52;;;;;;;8.17;1.70;;;3.70;99.90;;;;;;5010196;28;20533;-75
2022/02/25 04:40:18;;;;;;;5.50;1.57;;;3.70;99.90;;;;;;5010162;28;20916;-75
2022/02/25 04:42:45;;;;;;;3.87;1.40;;;3.70;99.90;;;;;;5009915;28;20501;-75
2022/02/25 04:45:12;;;;;;;5.87;1.27;;;3.70;99.90;;;;;;5009554;28;21002;-75
2022/02/25 04:47:40;;;;;;;3.27;1.60;;;3.70;99.90;;;;;;5009679;28;20939;-75
2022/02/25 04:50:08;;;;;;;4.50;1.63;;;3.80;99.90;;;;;;5010126;28;20454;-75
2022/02/25 04:52:35;;;;;;;7.20;1.37;;;3.80;99.90;;;;;;5009899;28;20450;-75
2022/02/25 04:55:04;;;;;;;3.60;1.53;;;3.80;99.90;;;;;;5009472;28;20873;-76
2022/02/25 04:57:31;;;;;;;3.33;2.27;;;3.80;99.90;;;;;;5009862;28;20468;-75
2022/02/25 04:59:58;;;;;;;5.23;1.50;;;3.80;99.90;;;;;;5010988;28;20449;-75
2022/02/25 05:02:25;;;;;;;4.30;1.40;;;3.80;99.90;;;;;;5013849;28;20453;-75
2022/02/25 05:04:51;;;;;;;2.30;1.23;;;3.80;99.90;;;;;;5013499;28;20508;-74
2022/02/25 05:07:18;;;;;;;3.33;1.40;;;3.80;99.90;;;;;;5013515;28;20457;-75
2022/02/25 05:09:45;;;;;;;5.10;1.30;;;3.80;99.90;;;;;;5013655;28;20553;-72
2022/02/25 05:12:13;;;;;;;4.57;1.50;;;3.90;99.90;;;;;;5013542;28;20449;-75
2022/02/25 05:20:26;;;;;;;5.30;1.53;;;3.80;99.90;;;;;;5006638;28;20452;-74
2022/02/25 05:22:56;;;;;;;6.43;2.07;;;3.90;99.90;;;;;;5013772;28;20546;-75
2022/02/25 05:25:23;;;;;;;3.50;1.50;;;3.90;99.90;;;;;;5013354;28;20564;-74
2022/02/25 05:27:52;;;;;;;3.27;1.40;;;3.90;99.90;;;;;;5013505;28;20445;-75
2022/02/25 05:30:20;;;;;;;3.93;1.37;;;3.90;99.90;;;;;;5013253;28;20540;-75
2022/02/25 05:32:48;;;;;;;5.47;1.87;;;4.00;99.90;;;;;;5013245;28;20453;-76
2022/02/25 05:35:16;;;;;;;11.07;2.43;;;4.10;99.90;;;;;;5012682;28;20465;-76
2022/02/25 05:37:45;;;;;;;6.93;2.00;;;4.10;99.90;;;;;;5012918;28;20453;-75
2022/02/25 05:40:15;;;;;;;4.93;1.30;;;4.10;99.90;;;;;;5013042;28;20460;-76
2022/02/25 05:42:42;;;;;;;3.70;1.70;;;4.10;99.90;;;;;;5016441;28;20453;-74
2022/02/25 05:45:11;;;;;;;4.97;1.43;;;4.10;99.90;;;;;;5013425;28;21199;-74
2022/02/25 05:47:38;;;;;;;4.57;1.70;;;4.10;99.90;;;;;;5017420;28;21169;-74
2022/02/25 05:50:07;;;;;;;6.03;1.90;;;4.10;99.90;;;;;;5020781;28;20503;-74
2022/02/25 05:52:35;;;;;;;5.00;1.70;;;4.00;99.90;;;;;;5014578;28;20446;-75
2022/02/25 05:55:02;;;;;;;3.83;1.40;;;4.10;99.90;;;;;;5012404;28;20453;-76
2022/02/25 05:57:28;;;;;;;6.73;1.40;;;4.10;99.90;;;;;;5011170;28;21306;-74
2022/02/25 05:59:55;;;;;;;3.70;1.43;;;4.10;99.90;;;;;;5015088;28;20450;-74
2022/02/25 06:02:24;;;;;;;4.57;2.03;;;4.10;99.90;;;;;;5014268;28;20470;-73
2022/02/25 06:04:51;;;;;;;5.40;1.77;;;4.00;99.90;;;;;;5013496;28;20481;-73
2022/02/25 06:07:18;;;;;;;6.30;1.70;;;4.00;99.90;;;;;;5008738;28;20468;-74
2022/02/25 06:09:45;;;;;;;3.70;1.57;;;4.00;99.90;;;;;;5025208;28;20479;-74
2022/02/25 06:12:12;;;;;;;4.70;1.60;;;4.00;99.90;;;;;;5016795;28;20441;-74
2022/02/25 06:14:39;;;;;;;4.10;1.50;;;3.90;99.90;;;;;;5007379;28;20562;-71
2022/02/25 06:17:05;;;;;;;3.17;1.27;;;3.90;99.90;;;;;;5008650;28;20549;-75
2022/02/25 06:19:34;;;;;;;7.20;1.60;;;3.80;99.90;;;;;;5007678;28;20458;-77
2022/02/25 06:22:00;;;;;;;5.17;1.50;;;3.80;99.90;;;;;;5026867;28;20453;-75
2022/02/25 06:24:27;;;;;;;3.60;1.30;;;3.70;99.90;;;;;;5015378;28;20488;-74
2022/02/25 06:26:54;;;;;;;4.33;1.30;;;3.70;99.90;;;;;;5029549;28;20475;-75
2022/02/25 06:29:21;;;;;;;3.80;1.53;;;3.60;99.90;;;;;;5013264;28;20454;-74
2022/02/25 06:31:48;;;;;;;5.80;1.80;;;3.60;99.90;;;;;;5012001;28;20449;-74
2022/02/25 06:34:15;;;;;;;2.63;1.20;;;3.60;99.90;;;;;;5011995;28;20500;-74
2022/02/25 06:36:43;;;;;;;12.43;2.03;;;3.60;99.90;;;;;;5014323;28;20501;-74
2022/02/25 06:39:10;;;;;;;6.07;1.90;;;3.60;99.90;;;;;;4992571;28;20497;-75
2022/02/25 06:41:38;;;;;;;5.80;2.07;;;3.60;99.90;;;;;;4992426;28;20529;-74
2022/02/25 06:44:05;;;;;;;4.10;1.70;;;3.60;99.90;;;;;;4991760;28;20581;-74
2022/02/25 06:46:32;;;;;;;7.90;2.87;;;3.50;99.90;;;;;;4991983;28;20477;-74
2022/02/25 06:48:59;;;;;;;4.00;1.30;;;3.50;99.90;;;;;;5006270;28;20480;-75
2022/02/25 06:51:26;;;;;;;5.50;1.67;;;3.50;99.90;;;;;;5011901;28;20469;-74
2022/02/25 06:53:54;;;;;;;5.10;1.40;;;3.50;99.90;;;;;;5011737;28;20437;-74
2022/02/25 06:56:21;;;;;;;6.03;1.87;;;3.50;99.90;;;;;;5011366;28;20473;-74
2022/02/25 06:58:48;;;;;;;4.43;1.70;;;3.50;99.90;;;;;;5011407;28;20457;-74
2022/02/25 07:01:15;;;;;;;4.53;1.83;;;3.50;99.90;;;;;;5011758;28;20481;-74
2022/02/25 07:03:42;;;;;;;5.57;2.10;;;3.60;99.90;;;;;;5011295;28;20532;-74
2022/02/25 07:06:09;;;;;;;5.40;1.53;;;3.60;99.90;;;;;;5011176;28;20470;-74
2022/02/25 07:08:36;;;;;;;8.73;2.40;;;3.60;99.90;;;;;;5011692;28;20866;-76
2022/02/25 07:11:04;;;;;;;6.07;2.17;;;3.60;99.90;;;;;;5011668;28;20456;-74
2022/02/25 07:13:31;;;;;;;7.80;2.93;;;3.60;99.90;;;;;;5011340;28;20496;-73
2022/02/25 07:15:58;;;;;;;5.87;2.20;;;3.60;99.90;;;;;;5011043;28;20497;-73
2022/02/25 07:18:25;;;;;;;8.20;2.20;;;3.60;99.90;;;;;;5011464;28;20481;-72
2022/02/25 07:20:52;;;;;;;6.33;1.90;;;3.60;99.90;;;;;;5011219;28;20541;-71
2022/02/25 07:23:18;;;;;;;6.03;1.93;;;3.70;99.90;;;;;;5010832;28;20449;-72
2022/02/25 07:25:45;;;;;;;6.00;1.80;;;3.80;99.90;;;;;;5010719;28;20487;-71
2022/02/25 07:28:14;;;;;;;7.67;2.40;;;3.80;99.90;;;;;;5010855;28;20460;-74
2022/02/25 07:30:41;;;;;;;6.37;2.17;;;3.90;99.90;;;;;;5011217;28;20859;-74
2022/02/25 07:33:07;;;;;;;5.07;1.97;;;3.90;99.90;;;;;;5011253;28;20457;-74
2022/02/25 07:35:35;;;;;;;3.60;1.90;;;4.00;99.90;;;;;;5010479;28;20577;-74
2022/02/25 07:38:03;;;;;;;7.23;2.30;;;4.00;99.90;;;;;;5010949;28;20450;-74
2022/02/25 07:40:30;;;;;;;6.43;2.13;;;4.00;99.90;;;;;;5010744;28;20454;-75
2022/02/25 07:42:57;;;;;;;4.90;1.67;;;4.00;99.90;;;;;;5010906;28;20452;-74
2022/02/25 07:45:27;;;;;;;4.77;2.00;;;4.10;99.90;;;;;;5010443;28;20502;-73
2022/02/25 07:47:54;;;;;;;7.53;1.83;;;4.10;99.90;;;;;;5010714;28;20442;-74
2022/02/25 07:50:20;;;;;;;7.90;2.40;;;4.20;99.90;;;;;;5010513;28;21185;-74
2022/02/25 07:52:47;;;;;;;8.23;2.40;;;4.30;99.90;;;;;;5010613;28;20448;-74
2022/02/25 07:55:15;;;;;;;4.73;1.90;;;4.40;99.90;;;;;;5010162;28;20984;-74
2022/02/25 07:57:42;;;;;;;7.97;3.50;;;4.40;99.90;;;;;;5010585;28;20512;-75
2022/02/25 08:00:15;;;;;;;3.80;1.73;;;4.40;99.90;;;;;;5010791;28;20464;-75
2022/02/25 08:02:44;;;;;;;4.93;1.90;;;4.50;99.90;;;;;;5010638;28;20450;-75
2022/02/25 08:05:11;;;;;;;4.60;1.77;;;4.60;99.90;;;;;;5009970;28;20568;-74
2022/02/25 08:07:38;;;;;;;4.53;1.97;;;4.50;99.90;;;;;;5010184;28;20497;-74
2022/02/25 08:10:06;;;;;;;8.40;2.40;;;4.60;99.90;;;;;;5010363;28;20508;-74
2022/02/25 08:12:33;;;;;;;10.03;2.10;;;4.70;99.90;;;;;;5010341;28;20533;-75
2022/02/25 08:14:59;;;;;;;4.13;1.60;;;4.70;99.90;;;;;;5009873;28;20456;-74
2022/02/25 08:17:26;;;;;;;3.47;1.50;;;4.80;99.90;;;;;;5010292;28;20446;-74
2022/02/25 08:19:55;;;;;;;6.20;1.90;;;4.80;99.90;;;;;;5010048;28;20446;-74
2022/02/25 08:22:22;;;;;;;4.33;1.80;;;4.90;99.90;;;;;;5010431;28;20541;-75
2022/02/25 08:24:50;;;;;;;6.60;2.17;;;4.90;99.90;;;;;;5009873;28;20505;-75
2022/02/25 08:27:17;;;;;;;6.00;1.80;;;4.90;99.90;;;;;;5010070;28;20856;-75
2022/02/25 08:29:44;;;;;;;6.10;1.53;;;4.90;99.90;;;;;;5010406;28;20461;-74
2022/02/25 08:32:11;;;;;;;4.80;1.70;;;4.90;99.90;;;;;;5010231;28;20549;-75
2022/02/25 08:34:39;;;;;;;6.83;1.70;;;4.90;99.90;;;;;;5008727;28;20441;-74
2022/02/25 08:37:08;;;;;;;7.00;1.83;;;5.10;99.90;;;;;;5010138;28;20469;-74
2022/02/25 08:39:37;;;;;;;5.33;1.57;;;5.10;99.90;;;;;;5010047;28;20456;-75
2022/02/25 08:42:04;;;;;;;5.70;1.37;;;5.10;99.90;;;;;;5010069;28;20457;-75
2022/02/25 08:44:31;;;;;;;9.00;2.70;;;5.20;99.90;;;;;;5009581;28;20577;-74
2022/02/25 08:46:58;;;;;;;11.27;2.30;;;5.30;99.90;;;;;;5009975;28;20461;-75
2022/02/25 08:49:25;;;;;;;5.07;1.97;;;5.30;99.90;;;;;;5009910;28;20545;-74
2022/02/25 08:51:52;;;;;;;9.07;1.63;;;5.20;99.90;;;;;;5010301;28;20452;-74
2022/02/25 08:54:20;;;;;;;4.83;1.63;;;5.20;99.90;;;;;;5009905;28;20488;-74
2022/02/25 08:56:47;;;;;;;8.67;2.30;;;5.30;99.90;;;;;;5010077;28;20509;-74
2022/02/25 08:59:14;;;;;;;6.80;2.77;;;5.30;99.90;;;;;;5010198;28;20445;-73
2022/02/25 09:01:41;;;;;;;6.50;2.03;;;5.40;99.90;;;;;;5009972;28;20516;-76
2022/02/25 09:04:08;;;;;;;5.70;1.87;;;5.40;99.90;;;;;;5009791;28;20450;-74
2022/02/25 09:06:36;;;;;;;7.70;2.50;;;5.40;99.90;;;;;;5009806;28;20482;-74
2022/02/25 09:09:05;;;;;;;8.50;2.30;;;5.50;99.90;;;;;;5009885;28;20465;-74
2022/02/25 09:11:33;;;;;;;3.97;1.40;;;5.50;99.90;;;;;;5009776;28;20461;-74
2022/02/25 09:14:00;;;;;;;4.73;1.60;;;5.50;99.90;;;;;;5009671;28;20461;-74
2022/02/25 09:16:27;;;;;;;5.13;2.47;;;5.50;99.90;;;;;;5009268;28;20489;-75
2022/02/25 09:18:55;;;;;;;5.20;2.10;;;5.60;99.90;;;;;;5009807;28;20487;-73
2022/02/25 09:21:22;;;;;;;4.97;1.90;;;5.70;99.90;;;;;;5009866;28;20450;-74
2022/02/25 09:23:50;;;;;;;4.50;1.83;;;5.70;99.90;;;;;;5009485;28;20963;-75
2022/02/25 09:26:17;;;;;;;6.27;1.93;;;5.80;99.90;;;;;;5009113;28;20493;-75
2022/02/25 09:28:45;;;;;;;7.37;2.30;;;5.80;99.90;;;;;;5009459;28;20552;-75
2022/02/25 09:31:13;;;;;;;4.50;1.80;;;5.90;99.90;;;;;;5009611;28;20450;-74
2022/02/25 09:33:40;;;;;;;4.63;1.60;;;6.00;99.90;;;;;;5009490;28;20492;-75
2022/02/25 09:36:07;;;;;;;7.90;1.80;;;6.10;99.90;;;;;;5009291;28;20466;-74
2022/02/25 09:38:34;;;;;;;6.53;1.57;;;6.50;99.90;;;;;;5009550;28;20448;-75
2022/02/25 09:41:01;;;;;;;4.87;1.40;;;6.60;99.90;;;;;;5009457;28;20453;-74
2022/02/25 09:43:29;;;;;;;7.20;2.13;;;6.70;99.90;;;;;;5009274;28;20866;-75
2022/02/25 09:45:57;;;;;;;5.30;1.70;;;6.80;99.90;;;;;;5010217;28;20547;-75
2022/02/25 09:48:24;;;;;;;7.50;3.83;;;6.80;99.90;;;;;;5012772;28;20536;-74
2022/02/25 09:50:52;;;;;;;7.40;2.20;;;6.70;99.90;;;;;;5012888;28;20472;-75
2022/02/25 09:53:19;;;;;;;3.70;1.50;;;6.70;99.90;;;;;;5012780;28;20481;-75
2022/02/25 09:55:46;;;;;;;8.50;1.90;;;6.60;99.90;;;;;;5012613;28;20501;-75
2022/02/25 09:58:13;;;;;;;5.07;1.50;;;6.50;99.90;;;;;;5012705;28;20824;-74
2022/02/25 10:00:43;;;;;;;5.60;1.30;;;6.40;99.90;;;;;;5012885;28;20485;-75
2022/02/25 10:03:15;;;;;;;5.03;1.50;;;6.50;99.90;;;;;;5012667;28;20461;-74
2022/02/25 10:05:42;;;;;;;5.77;2.87;;;6.50;99.90;;;;;;5012229;28;20873;-75
2022/02/25 10:08:14;;;;;;;4.70;1.53;;;6.60;99.90;;;;;;5012556;28;21259;-74
2022/02/25 10:10:44;;;;;;;5.63;1.30;;;6.70;99.90;;;;;;5012740;28;20858;-74
2022/02/25 10:13:13;;;;;;;4.30;1.17;;;6.70;99.90;;;;;;5012588;28;20449;-74
2022/02/25 10:15:43;;;;;;;4.47;1.50;;;6.60;99.90;;;;;;5012011;28;20462;-75
2022/02/25 10:18:14;;;;;;;8.63;2.53;;;6.40;99.90;;;;;;5012488;28;20446;-74
2022/02/25 10:20:42;;;;;;;7.53;1.83;;;6.20;99.90;;;;;;5012372;28;20841;-74
2022/02/25 10:23:25;;;;;;;3.20;1.30;;;6.20;99.90;;;;;;5012153;28;20552;-73
2022/02/25 10:25:53;;;;;;;2.97;1.73;;;6.30;99.90;;;;;;5011838;28;20511;-75
2022/02/25 10:28:30;;;;;;;3.50;1.30;;;6.40;99.90;;;;;;5012189;28;20541;-73
2022/02/25 10:31:23;;;;;;;7.23;1.63;;;6.40;99.90;;;;;;5012103;28;20449;-73
2022/02/25 10:34:06;;;;;;;4.83;1.60;;;6.60;99.90;;;;;;4993709;28;20577;-73
2022/02/25 10:36:46;;;;;;;8.40;1.47;;;6.70;99.90;;;;;;5012128;28;20469;-73
2022/02/25 10:39:14;;;;;;;6.77;1.80;;;6.90;99.90;;;;;;5012185;28;20438;-74
2022/02/25 10:41:41;;;;;;;4.37;1.57;;;7.00;99.90;;;;;;5012141;28;20448;-73
2022/02/25 10:44:08;;;;;;;5.47;1.57;;;7.20;99.90;;;;;;5012042;28;20445;-73
2022/02/25 10:46:35;;;;;;;6.30;2.00;;;7.40;99.90;;;;;;5011984;28;20485;-73
2022/02/25 10:49:08;;;;;;;3.20;1.40;;;7.60;99.90;;;;;;5012331;28;20457;-74
2022/02/25 10:51:37;;;;;;;6.80;1.90;;;7.70;99.90;;;;;;5013076;28;20493;-73
2022/02/25 10:54:05;;;;;;;3.77;1.60;;;7.60;99.90;;;;;;5011557;28;20453;-73
2022/02/25 10:56:44;;;;;;;4.27;1.40;;;7.50;99.90;;;;;;5011475;28;20466;-73
2022/02/25 10:59:12;;;;;;;5.43;1.70;;;7.30;99.90;;;;;;5011248;28;20496;-72
2022/02/25 11:01:39;;;;;;;8.70;1.87;;;7.30;99.90;;;;;;5011463;28;20484;-73
2022/02/25 11:04:10;;;;;;;6.03;1.73;;;7.30;99.90;;;;;;5011244;28;20445;-73
2022/02/25 11:06:37;;;;;;;9.63;1.60;;;7.50;99.90;;;;;;5011138;28;20573;-73
2022/02/25 11:09:05;;;;;;;3.27;1.73;;;7.70;99.90;;;;;;5011769;28;20921;-73
2022/02/25 11:11:33;;;;;;;4.67;1.30;;;7.80;99.90;;;;;;5011522;28;20454;-73
2022/02/25 11:14:04;;;;;;;5.00;1.30;;;7.80;99.90;;;;;;5011395;28;20460;-73
2022/02/25 11:16:32;;;;;;;3.60;1.20;;;7.70;99.90;;;;;;5011252;28;20881;-72
2022/02/25 11:19:02;;;;;;;10.63;2.70;;;7.80;99.90;;;;;;5011375;28;20557;-73
2022/02/25 11:21:32;;;;;;;5.17;1.43;;;8.10;99.90;;;;;;5011037;28;20458;-74
2022/02/25 11:24:01;;;;;;;8.40;1.70;;;8.30;99.90;;;;;;5011302;28;20465;-74
2022/02/25 11:26:28;;;;;;;4.77;1.53;;;8.40;99.90;;;;;;5010905;28;21065;-75
2022/02/25 11:29:00;;;;;;;6.53;2.17;;;8.50;99.90;;;;;;5011066;28;20955;-76
2022/02/25 11:31:32;;;;;;;5.13;1.87;;;8.60;99.90;;;;;;5011025;28;20859;-75
2022/02/25 11:34:00;;;;;;;3.37;1.27;;;8.50;99.90;;;;;;5010812;28;20492;-76
2022/02/25 11:36:44;;;;;;;6.43;1.63;;;8.30;99.90;;;;;;5010783;28;20470;-75
2022/02/25 11:39:22;;;;;;;5.00;2.00;;;8.30;99.90;;;;;;5022140;23;20452;-78
2022/02/25 11:41:50;;;;;;;5.20;1.43;;;8.30;99.90;;;;;;5005253;28;20490;-78
2022/02/25 11:44:17;;;;;;;5.60;1.50;;;8.40;99.90;;;;;;5012255;28;20453;-78
2022/02/25 11:46:45;;;;;;;5.97;1.50;;;8.40;99.90;;;;;;5013471;28;20521;-76
2022/02/25 11:49:19;;;;;;;6.57;1.47;;;8.50;99.90;;;;;;5012934;28;20458;-77
2022/02/25 11:51:58;;;;;;;3.70;1.30;;;8.40;99.90;;;;;;5012930;28;20455;-78
2022/02/25 11:54:34;;;;;;;7.53;1.80;;;8.50;99.90;;;;;;5013327;28;20446;-77
2022/02/25 11:57:34;;;;;;;7.50;1.70;;;8.20;99.90;;;;;;5013147;28;20905;-77
2022/02/25 12:00:21;;;;;;;6.67;1.77;;;8.00;99.90;;;;;;5013515;28;20513;-78
2022/02/25 12:03:13;;;;;;;4.70;1.77;;;7.90;99.90;;;;;;5012969;28;20508;-79
2022/02/25 12:05:45;;;;;;;5.97;1.53;;;7.80;99.90;;;;;;5010611;28;20529;-78
2022/02/25 12:08:25;;;;;;;4.33;1.30;;;7.60;99.90;;;;;;5011048;28;20803;-78
2022/02/25 12:10:52;;;;;;;9.47;2.37;;;7.70;99.90;;;;;;5013198;28;20481;-78
2022/02/25 12:13:27;;;;;;;7.20;1.57;;;7.80;99.90;;;;;;5016554;28;20513;-78
2022/02/25 12:15:54;;;;;;;6.47;1.40;;;7.90;99.90;;;;;;5015639;28;20437;-78
2022/02/25 12:18:36;;;;;;;5.83;1.50;;;8.00;99.90;;;;;;5016231;28;20476;-79
2022/02/25 12:21:03;;;;;;;2.43;1.03;;;8.10;99.90;;;;;;5016094;28;20548;-78
2022/02/25 12:23:41;;;;;;;3.30;1.27;;;8.20;99.90;;;;;;5016577;28;20982;-78
2022/02/25 12:26:10;;;;;;;3.27;1.40;;;8.00;99.90;;;;;;5012227;28;20515;-77
2022/02/25 12:28:53;;;;;;;5.60;1.73;;;8.00;99.90;;;;;;5005411;28;20474;-79
2022/02/25 12:31:24;;;;;;;6.03;1.30;;;8.20;99.90;;;;;;5001530;28;20541;-78
2022/02/25 12:33:57;;;;;;;4.47;1.63;;;8.40;99.90;;;;;;4992050;28;20882;-79
2022/02/25 12:36:43;;;;;;;5.20;1.23;;;8.50;99.90;;;;;;4989664;28;20883;-78
2022/02/25 12:39:19;;;;;;;6.10;2.53;;;8.60;99.90;;;;;;4989713;28;20971;-79
2022/02/25 12:41:47;;;;;;;7.70;2.57;;;8.50;99.90;;;;;;4989937;28;20470;-79
2022/02/25 12:44:16;;;;;;;10.37;1.77;;;8.50;99.90;;;;;;4989658;28;20482;-78
2022/02/25 12:46:47;;;;;;;6.63;1.70;;;8.50;99.90;;;;;;5007154;28;20482;-78
2022/02/25 12:49:17;;;;;;;7.93;1.60;;;8.50;99.90;;;;;;4996377;28;20442;-78
2022/02/25 12:51:44;;;;;;;7.63;1.60;;;8.40;99.90;;;;;;4991423;28;20538;-78
2022/02/25 12:54:14;;;;;;;7.33;1.63;;;8.30;99.90;;;;;;5008364;28;21065;-78
2022/02/25 12:56:45;;;;;;;5.00;1.73;;;8.10;99.90;;;;;;5009366;28;20476;-78
2022/02/25 12:59:13;;;;;;;6.63;1.83;;;7.90;99.90;;;;;;5008930;28;20912;-79
2022/02/25 13:01:48;;;;;;;4.00;1.80;;;7.80;99.90;;;;;;5008184;28;20492;-78
2022/02/25 13:04:19;;;;;;;4.00;1.70;;;7.60;99.90;;;;;;5007918;28;20450;-79
2022/02/25 13:06:47;;;;;;;7.00;1.87;;;7.40;99.90;;;;;;5008950;28;20490;-79
2022/02/25 13:09:20;;;;;;;4.27;1.77;;;7.40;99.90;;;;;;5009632;28;20904;-79
2022/02/25 13:11:49;;;;;;;5.80;1.63;;;7.20;99.90;;;;;;5008865;28;20458;-79
2022/02/25 13:14:18;;;;;;;5.67;1.90;;;7.20;99.90;;;;;;5008629;28;20446;-79